Time;durP1;ratioP1;P1;durP2;ratioP2;P2;SDS_P1;SDS_P2;PMS_P1;PMS_P2;Temp;Humidity;BMP_temperature;BMP_pressure;BME280_temperature;BME280_humidity;BME280_pressure;Samples;Min_cycle;Max_cycle;Signal;HPM_P1;HPM_P2
2023/06/19 00:01:41;;;;;;;6.78;6.18;;;24.20;50.90;;;;;;5054620;28;20210;-69
2023/06/19 00:04:06;;;;;;;5.88;5.40;;;24.20;51.00;;;;;;5054380;28;20211;-69
2023/06/19 00:06:32;;;;;;;5.78;5.30;;;24.20;51.00;;;;;;5053918;28;20253;-69
2023/06/19 00:08:58;;;;;;;5.60;5.20;;;24.20;51.00;;;;;;5054134;28;20183;-68
2023/06/19 00:11:23;;;;;;;6.20;5.70;;;24.20;51.00;;;;;;5053574;28;20171;-68
2023/06/19 00:13:49;;;;;;;6.32;5.82;;;24.20;51.00;;;;;;5054511;28;20182;-68
2023/06/19 00:16:15;;;;;;;6.20;5.70;;;24.20;51.00;;;;;;5053821;28;20174;-67
2023/06/19 00:18:40;;;;;;;5.63;5.13;;;24.20;51.00;;;;;;5053528;28;20869;-67
2023/06/19 00:21:07;;;;;;;6.85;6.25;;;24.20;51.00;;;;;;5053960;28;20536;-67
2023/06/19 00:23:34;;;;;;;6.43;5.93;;;24.20;51.10;;;;;;5054216;28;20211;-67
2023/06/19 00:26:01;;;;;;;6.28;5.78;;;24.20;51.10;;;;;;5053283;28;20183;-67
2023/06/19 00:28:27;;;;;;;6.65;6.05;;;24.20;51.10;;;;;;5054058;28;20202;-68
2023/06/19 00:30:53;;;;;;;5.50;5.10;;;24.20;51.10;;;;;;5053708;28;20178;-69
2023/06/19 00:33:19;;;;;;;6.55;5.95;;;24.20;51.10;;;;;;5053139;28;20266;-68
2023/06/19 00:35:44;;;;;;;6.18;5.63;;;24.20;51.10;;;;;;5054096;28;20202;-68
2023/06/19 00:38:10;;;;;;;6.25;5.75;;;24.10;51.10;;;;;;5053365;28;20235;-68
2023/06/19 00:40:35;;;;;;;6.15;5.60;;;24.20;51.20;;;;;;5053177;28;20634;-67
2023/06/19 00:43:01;;;;;;;5.97;5.47;;;24.20;51.20;;;;;;5053382;28;20658;-67
2023/06/19 00:45:27;;;;;;;5.97;5.55;;;24.20;51.10;;;;;;5052469;28;20179;-67
2023/06/19 00:47:53;;;;;;;6.22;5.72;;;24.20;51.20;;;;;;5053166;28;20725;-68
2023/06/19 00:50:19;;;;;;;5.75;5.25;;;24.20;51.20;;;;;;5053383;28;20574;-67
2023/06/19 00:52:44;;;;;;;6.38;5.88;;;24.20;51.20;;;;;;5052503;28;20229;-67
2023/06/19 00:55:10;;;;;;;6.13;5.65;;;24.20;51.20;;;;;;5052592;28;20642;-67
2023/06/19 00:57:36;;;;;;;5.53;5.13;;;24.20;51.20;;;;;;5052288;28;20171;-68
2023/06/19 01:00:04;;;;;;;5.50;5.10;;;24.10;51.20;;;;;;5053014;28;20185;-68
2023/06/19 01:02:30;;;;;;;6.03;5.57;;;24.20;51.30;;;;;;5052954;28;20187;-69
2023/06/19 01:04:56;;;;;;;5.72;5.22;;;24.10;51.20;;;;;;5052062;28;20298;-68
2023/06/19 01:07:57;;;;;;;5.55;5.15;;;24.20;51.30;;;;;;5053523;28;20250;-69
2023/06/19 01:10:26;;;;;;;5.55;5.15;;;24.10;51.20;;;;;;5052050;28;20179;-68
2023/06/19 01:13:16;;;;;;;5.38;4.97;;;24.10;51.20;;;;;;5053209;28;20175;-68
2023/06/19 01:15:42;;;;;;;6.03;5.53;;;24.10;51.20;;;;;;5052635;28;20183;-67
2023/06/19 01:18:07;;;;;;;6.10;5.60;;;24.10;51.20;;;;;;5035075;28;20178;-67
2023/06/19 01:20:33;;;;;;;5.93;5.45;;;24.10;51.20;;;;;;5035296;28;20691;-67
2023/06/19 01:23:08;;;;;;;5.38;4.97;;;24.10;51.20;;;;;;5050678;28;20213;-67
2023/06/19 01:25:35;;;;;;;5.60;5.20;;;24.10;51.30;;;;;;5053222;28;20206;-67
2023/06/19 01:28:01;;;;;;;5.38;4.97;;;24.10;51.30;;;;;;5052934;28;20536;-68
2023/06/19 01:30:27;;;;;;;5.75;5.35;;;24.10;51.30;;;;;;5052390;28;20190;-68
2023/06/19 01:33:03;;;;;;;5.45;5.05;;;24.10;51.30;;;;;;5051666;28;20179;-69
2023/06/19 01:35:32;;;;;;;5.75;5.25;;;24.10;51.30;;;;;;5052890;28;20642;-68
2023/06/19 01:37:59;;;;;;;6.35;5.72;;;24.10;51.30;;;;;;5034198;28;20581;-68
2023/06/19 01:40:25;;;;;;;5.60;5.10;;;24.10;51.30;;;;;;5051837;28;20181;-68
2023/06/19 01:42:52;;;;;;;5.85;5.45;;;24.10;51.30;;;;;;5050938;28;20229;-68
2023/06/19 01:45:17;;;;;;;5.88;5.47;;;24.10;51.30;;;;;;5051363;28;20221;-68
2023/06/19 01:47:43;;;;;;;6.07;5.57;;;24.10;51.30;;;;;;5052584;28;20171;-68
2023/06/19 01:50:09;;;;;;;5.45;5.05;;;24.10;51.30;;;;;;5051843;28;20248;-67
2023/06/19 01:52:34;;;;;;;5.57;5.18;;;24.10;51.40;;;;;;5051998;28;20262;-67
2023/06/19 01:55:00;;;;;;;5.95;5.45;;;24.10;51.30;;;;;;5052519;28;20254;-67
2023/06/19 01:57:25;;;;;;;5.70;5.30;;;24.10;51.30;;;;;;5051687;28;20343;-68
2023/06/19 01:59:51;;;;;;;5.22;4.88;;;24.10;51.40;;;;;;5051448;28;20221;-69
2023/06/19 02:02:16;;;;;;;5.25;4.85;;;24.10;51.40;;;;;;5052395;28;20202;-69
2023/06/19 02:04:42;;;;;;;5.22;4.82;;;24.10;51.40;;;;;;5051391;28;20254;-69
2023/06/19 02:07:07;;;;;;;5.60;5.20;;;24.10;51.40;;;;;;5052244;28;20172;-69
2023/06/19 02:09:33;;;;;;;5.13;4.72;;;24.10;51.40;;;;;;5052409;28;20183;-68
2023/06/19 02:11:59;;;;;;;5.70;5.20;;;24.10;51.40;;;;;;5051419;28;20171;-68
2023/06/19 02:14:24;;;;;;;5.43;5.03;;;24.10;51.40;;;;;;5052403;28;20211;-67
2023/06/19 02:16:50;;;;;;;5.90;5.40;;;24.10;51.40;;;;;;5052179;28;20221;-67
2023/06/19 02:19:15;;;;;;;5.78;5.28;;;24.10;51.40;;;;;;5051420;28;20266;-67
2023/06/19 02:21:41;;;;;;;5.53;5.13;;;24.00;51.40;;;;;;5052111;28;20254;-67
2023/06/19 02:24:06;;;;;;;5.82;5.32;;;24.10;51.40;;;;;;5051955;28;20298;-68
2023/06/19 02:26:32;;;;;;;5.57;5.15;;;24.00;51.40;;;;;;5051466;28;20624;-67
2023/06/19 02:28:57;;;;;;;5.22;4.93;;;24.00;51.40;;;;;;5051942;28;20176;-67
2023/06/19 02:31:23;;;;;;;5.85;5.40;;;24.00;51.50;;;;;;5052225;28;20229;-68
2023/06/19 02:33:49;;;;;;;5.30;4.88;;;24.10;51.50;;;;;;5051352;28;20229;-68
2023/06/19 02:36:19;;;;;;;5.53;5.13;;;24.00;51.40;;;;;;5052063;28;20265;-68
2023/06/19 02:38:47;;;;;;;5.03;4.55;;;24.00;51.50;;;;;;5051941;28;20246;-67
2023/06/19 02:41:13;;;;;;;5.38;4.97;;;24.00;51.50;;;;;;5050951;28;20622;-68
2023/06/19 02:43:40;;;;;;;5.40;5.00;;;24.00;51.50;;;;;;5051928;28;20214;-68
2023/06/19 02:46:06;;;;;;;6.07;5.57;;;24.00;52.20;;;;;;5050860;28;20241;-68
2023/06/19 02:48:31;;;;;;;5.00;4.60;;;24.00;51.50;;;;;;5052368;28;20634;-67
2023/06/19 02:50:57;;;;;;;4.93;4.63;;;24.00;51.50;;;;;;5052028;28;20167;-67
2023/06/19 02:53:23;;;;;;;5.30;4.90;;;24.00;51.60;;;;;;5051438;28;20491;-67
2023/06/19 02:55:48;;;;;;;5.10;4.70;;;24.00;51.60;;;;;;5052198;28;20538;-67
2023/06/19 02:58:14;;;;;;;5.35;4.85;;;24.00;51.70;;;;;;5051635;28;20182;-68
2023/06/19 03:00:39;;;;;;;5.18;4.78;;;24.00;51.70;;;;;;5051249;28;20190;-68
2023/06/19 03:03:05;;;;;;;4.40;4.10;;;24.00;51.70;;;;;;5051507;28;20211;-68
2023/06/19 03:05:30;;;;;;;5.43;5.03;;;24.00;51.70;;;;;;5051786;28;20171;-69
2023/06/19 03:07:56;;;;;;;4.93;4.53;;;24.00;51.70;;;;;;5051212;28;20171;-69
2023/06/19 03:10:22;;;;;;;5.25;4.75;;;24.00;51.70;;;;;;5054958;28;20180;-68
2023/06/19 03:12:47;;;;;;;5.13;4.60;;;24.00;51.70;;;;;;5055602;28;20187;-68
2023/06/19 03:15:13;;;;;;;4.88;4.47;;;24.00;51.70;;;;;;5054452;28;20714;-67
2023/06/19 03:17:38;;;;;;;5.25;4.80;;;24.00;51.70;;;;;;5055449;28;20646;-67
2023/06/19 03:20:05;;;;;;;5.28;4.88;;;24.00;51.70;;;;;;5055073;28;20576;-67
2023/06/19 03:22:31;;;;;;;4.90;4.50;;;24.00;51.80;;;;;;5054611;28;20182;-67
2023/06/19 03:24:56;;;;;;;4.45;4.15;;;24.00;51.80;;;;;;5054911;28;20215;-67
2023/06/19 03:27:22;;;;;;;4.88;4.35;;;24.00;52.10;;;;;;5055184;28;20167;-67
2023/06/19 03:29:48;;;;;;;4.80;4.40;;;24.00;52.50;;;;;;5054265;28;20693;-67
2023/06/19 03:32:13;;;;;;;4.15;3.75;;;24.00;51.90;;;;;;5054682;28;20199;-68
2023/06/19 03:34:39;;;;;;;4.88;4.47;;;24.00;51.90;;;;;;5055295;28;20224;-68
2023/06/19 03:37:05;;;;;;;4.80;4.40;;;24.00;51.90;;;;;;5053843;28;20258;-67
2023/06/19 03:39:30;;;;;;;4.57;4.18;;;24.00;51.90;;;;;;5055471;28;20254;-67
2023/06/19 03:41:56;;;;;;;4.22;3.92;;;24.00;51.90;;;;;;5054887;28;20577;-68
2023/06/19 03:44:21;;;;;;;4.43;4.13;;;24.00;52.00;;;;;;5053952;28;20686;-68
2023/06/19 03:46:47;;;;;;;4.43;4.03;;;24.00;51.90;;;;;;5054665;28;20212;-67
2023/06/19 03:49:12;;;;;;;4.68;4.28;;;24.00;52.00;;;;;;5054783;28;20257;-67
2023/06/19 03:51:38;;;;;;;4.43;4.03;;;24.00;52.00;;;;;;5053935;28;20171;-67
2023/06/19 03:54:04;;;;;;;4.82;4.45;;;24.00;52.00;;;;;;5054537;28;20183;-67
2023/06/19 03:56:29;;;;;;;4.45;4.05;;;24.00;52.00;;;;;;5053860;28;20269;-67
2023/06/19 03:58:55;;;;;;;4.30;3.90;;;24.00;52.00;;;;;;5054445;28;20186;-68
2023/06/19 04:01:20;;;;;;;4.30;4.00;;;24.00;52.10;;;;;;5054386;28;20187;-68
2023/06/19 04:03:46;;;;;;;4.00;3.70;;;24.00;52.00;;;;;;5053759;28;20215;-68
2023/06/19 04:06:11;;;;;;;4.63;4.22;;;24.00;52.10;;;;;;5054107;28;20181;-68
2023/06/19 04:08:37;;;;;;;4.70;4.30;;;24.00;52.10;;;;;;5054354;28;20216;-68
2023/06/19 04:11:02;;;;;;;4.25;3.95;;;23.90;52.00;;;;;;5053092;28;20660;-68
2023/06/19 04:13:28;;;;;;;4.38;4.05;;;24.00;52.10;;;;;;5054399;28;20168;-67
2023/06/19 04:15:53;;;;;;;4.18;3.88;;;24.00;52.10;;;;;;5054319;28;20179;-67
2023/06/19 04:18:19;;;;;;;3.65;3.35;;;24.00;52.10;;;;;;5053349;28;20179;-67
2023/06/19 04:20:44;;;;;;;3.80;3.50;;;24.00;52.20;;;;;;5053941;28;20167;-67
2023/06/19 04:23:10;;;;;;;4.75;4.35;;;24.00;52.20;;;;;;5053764;28;20248;-67
2023/06/19 04:25:37;;;;;;;4.20;3.83;;;24.00;52.20;;;;;;5053404;28;20186;-67
2023/06/19 04:28:03;;;;;;;3.80;3.50;;;24.00;52.20;;;;;;5053861;28;20179;-68
2023/06/19 04:30:30;;;;;;;3.88;3.58;;;24.00;52.20;;;;;;5054010;28;20187;-68
2023/06/19 04:32:56;;;;;;;3.72;3.47;;;24.00;52.20;;;;;;5053437;28;20171;-69
2023/06/19 04:35:23;;;;;;;4.50;4.10;;;23.90;52.10;;;;;;5054167;28;20183;-68
2023/06/19 04:37:49;;;;;;;4.30;4.00;;;24.00;52.20;;;;;;5053849;28;20223;-68
2023/06/19 04:40:14;;;;;;;3.97;3.67;;;23.90;52.10;;;;;;5052934;28;20531;-67
2023/06/19 04:42:40;;;;;;;4.22;3.92;;;24.00;52.20;;;;;;5053439;28;20181;-68
2023/06/19 04:45:09;;;;;;;4.00;3.55;;;24.00;52.20;;;;;;5053342;28;20179;-68
2023/06/19 04:47:34;;;;;;;3.78;3.47;;;24.00;52.20;;;;;;5053430;28;20178;-67
2023/06/19 04:50:00;;;;;;;4.07;3.67;;;24.00;52.30;;;;;;5053559;28;20171;-68
2023/06/19 04:52:26;;;;;;;4.18;3.78;;;24.00;52.20;;;;;;5053677;28;20171;-66
2023/06/19 04:54:51;;;;;;;3.92;3.53;;;24.00;52.20;;;;;;5052651;28;20576;-67
2023/06/19 04:57:17;;;;;;;4.22;3.83;;;24.00;52.20;;;;;;5053161;28;20692;-68
2023/06/19 04:59:43;;;;;;;3.50;3.30;;;24.00;52.20;;;;;;5052605;28;20531;-68
2023/06/19 05:02:10;;;;;;;3.58;3.28;;;24.00;52.20;;;;;;5053218;28;20205;-69
2023/06/19 05:04:35;;;;;;;3.50;3.20;;;24.00;52.20;;;;;;5053214;28;20302;-68
2023/06/19 05:07:01;;;;;;;3.35;3.05;;;24.00;52.30;;;;;;5052107;28;20290;-69
2023/06/19 05:09:27;;;;;;;4.07;3.30;;;24.00;52.30;;;;;;5053347;28;20179;-68
2023/06/19 05:11:52;;;;;;;3.70;3.40;;;24.00;52.30;;;;;;5052928;28;20537;-68
2023/06/19 05:14:18;;;;;;;3.13;2.92;;;24.00;52.30;;;;;;5052073;28;20566;-68
2023/06/19 05:16:44;;;;;;;4.10;3.72;;;24.00;52.30;;;;;;5053191;28;20604;-67
2023/06/19 05:19:09;;;;;;;3.85;3.55;;;24.00;52.40;;;;;;5052794;28;20650;-67
2023/06/19 05:21:35;;;;;;;4.15;3.75;;;24.00;52.40;;;;;;5052268;28;20167;-67
2023/06/19 05:24:01;;;;;;;3.53;3.25;;;24.00;52.40;;;;;;5052669;28;20207;-67
2023/06/19 05:26:26;;;;;;;3.60;3.30;;;24.00;52.50;;;;;;5052642;28;20179;-68
2023/06/19 05:28:52;;;;;;;3.60;3.30;;;23.90;52.30;;;;;;5052166;28;20625;-68
2023/06/19 05:31:18;;;;;;;3.47;3.22;;;24.00;52.40;;;;;;5052098;28;20171;-69
2023/06/19 05:33:44;;;;;;;3.60;3.30;;;24.00;52.40;;;;;;5053045;28;20186;-69
2023/06/19 05:36:09;;;;;;;3.13;2.92;;;24.00;52.40;;;;;;5051774;28;20178;-68
2023/06/19 05:38:35;;;;;;;3.40;3.10;;;24.00;52.40;;;;;;5052872;28;20227;-68
2023/06/19 05:41:01;;;;;;;3.55;3.25;;;24.00;52.50;;;;;;5052594;28;20182;-68
2023/06/19 05:43:27;;;;;;;3.58;3.28;;;24.00;52.50;;;;;;5052075;28;20214;-68
2023/06/19 05:45:56;;;;;;;3.63;3.33;;;24.00;52.50;;;;;;5053021;28;20171;-68
2023/06/19 05:48:21;;;;;;;3.25;2.75;;;23.90;52.40;;;;;;5052898;28;20171;-68
2023/06/19 05:50:47;;;;;;;3.55;3.25;;;23.90;52.40;;;;;;5052050;28;20628;-68
2023/06/19 05:53:12;;;;;;;3.45;3.15;;;24.00;52.50;;;;;;5052431;28;20206;-67
2023/06/19 05:55:38;;;;;;;3.17;2.97;;;24.00;52.50;;;;;;5052568;28;20688;-67
2023/06/19 05:58:03;;;;;;;3.38;3.08;;;24.00;52.50;;;;;;5051683;28;20174;-68
2023/06/19 06:00:30;;;;;;;3.67;3.38;;;24.00;52.50;;;;;;5052834;28;20179;-69
2023/06/19 06:02:59;;;;;;;3.08;2.88;;;24.00;52.50;;;;;;5052636;28;20175;-69
2023/06/19 06:05:25;;;;;;;3.25;2.95;;;24.00;52.50;;;;;;5052473;28;20632;-69
2023/06/19 06:07:50;;;;;;;4.07;3.35;;;24.00;52.60;;;;;;5052701;28;20203;-69
2023/06/19 06:10:16;;;;;;;2.72;2.53;;;24.00;52.50;;;;;;5051449;28;20183;-68
2023/06/19 06:12:42;;;;;;;3.10;2.80;;;24.00;52.60;;;;;;5052792;28;20177;-68
2023/06/19 06:15:08;;;;;;;3.50;3.30;;;24.00;52.60;;;;;;5052494;28;20619;-68
2023/06/19 06:17:33;;;;;;;2.85;2.65;;;24.00;52.60;;;;;;5051906;28;20221;-68
2023/06/19 06:19:59;;;;;;;3.45;3.15;;;24.00;52.70;;;;;;5052393;28;20225;-67
2023/06/19 06:22:24;;;;;;;2.90;2.70;;;24.00;52.60;;;;;;5052624;28;20229;-67
2023/06/19 06:24:50;;;;;;;3.30;3.00;;;24.00;52.60;;;;;;5051507;28;20211;-67
2023/06/19 06:27:16;;;;;;;2.40;2.22;;;24.00;52.70;;;;;;5052321;28;20183;-68
2023/06/19 06:29:41;;;;;;;3.30;3.00;;;24.00;52.80;;;;;;5052626;28;20179;-68
2023/06/19 06:32:07;;;;;;;3.38;3.00;;;24.00;52.70;;;;;;5051499;28;20174;-68
2023/06/19 06:34:33;;;;;;;3.10;2.90;;;24.00;52.80;;;;;;5052486;28;20187;-69
2023/06/19 06:37:02;;;;;;;2.92;2.72;;;24.00;52.80;;;;;;5051747;28;20538;-68
2023/06/19 06:39:28;;;;;;;2.92;2.72;;;24.00;52.80;;;;;;5051583;28;20179;-68
2023/06/19 06:41:53;;;;;;;3.15;2.95;;;23.90;52.80;;;;;;5052202;28;20178;-67
2023/06/19 06:44:19;;;;;;;3.22;2.88;;;24.00;52.90;;;;;;5055025;28;20218;-68
2023/06/19 06:46:44;;;;;;;3.30;3.00;;;24.00;52.90;;;;;;5055454;28;20171;-67
2023/06/19 06:49:11;;;;;;;2.92;2.72;;;24.00;52.90;;;;;;5055699;28;20186;-68
2023/06/19 06:51:36;;;;;;;3.55;3.05;;;24.00;52.90;;;;;;5055956;28;20182;-67
2023/06/19 06:54:02;;;;;;;2.85;2.65;;;24.00;52.90;;;;;;5054954;28;20274;-67
2023/06/19 06:56:28;;;;;;;3.20;2.90;;;24.00;53.00;;;;;;5055845;28;20179;-67
2023/06/19 06:58:53;;;;;;;3.30;3.00;;;23.90;52.90;;;;;;5055739;28;20175;-69
2023/06/19 07:01:19;;;;;;;3.47;3.17;;;23.90;52.90;;;;;;5054736;28;20217;-69
2023/06/19 07:03:44;;;;;;;2.80;2.60;;;24.00;53.00;;;;;;5055720;28;20236;-69
2023/06/19 07:06:10;;;;;;;3.35;3.15;;;23.90;53.00;;;;;;5055448;28;20176;-68
2023/06/19 07:08:35;;;;;;;3.65;3.35;;;24.00;53.80;;;;;;5054201;28;20233;-67
2023/06/19 07:11:01;;;;;;;2.90;2.63;;;23.90;53.20;;;;;;5052911;28;20183;-68
2023/06/19 07:13:27;;;;;;;3.00;2.58;;;24.00;53.30;;;;;;5054013;28;20176;-68
2023/06/19 07:15:52;;;;;;;2.70;2.50;;;23.90;53.10;;;;;;5055260;28;20179;-68
2023/06/19 07:18:18;;;;;;;3.40;3.10;;;24.00;53.60;;;;;;5054403;28;20175;-68
2023/06/19 07:20:43;;;;;;;4.22;3.35;;;24.00;53.40;;;;;;5054801;28;20182;-69
2023/06/19 07:23:09;;;;;;;4.40;3.75;;;23.90;53.70;;;;;;5055018;28;20199;-68
2023/06/19 07:25:35;;;;;;;3.70;3.40;;;24.00;53.80;;;;;;5054179;28;20500;-69
2023/06/19 07:28:01;;;;;;;5.20;3.38;;;23.90;53.90;;;;;;5054366;28;20181;-69
2023/06/19 07:30:27;;;;;;;3.83;3.50;;;23.90;53.90;;;;;;5055472;28;20642;-70
2023/06/19 07:32:52;;;;;;;5.32;3.60;;;23.90;54.00;;;;;;5055195;28;20181;-70
2023/06/19 07:35:18;;;;;;;3.50;2.90;;;24.00;53.90;;;;;;5054164;28;20191;-69
2023/06/19 07:37:44;;;;;;;3.47;3.17;;;24.00;53.80;;;;;;5054914;28;20223;-69
2023/06/19 07:40:10;;;;;;;3.80;3.40;;;24.10;53.90;;;;;;5054974;28;20194;-69
2023/06/19 07:42:36;;;;;;;3.78;3.47;;;24.00;53.90;;;;;;5054284;28;20280;-68
2023/06/19 07:45:02;;;;;;;4.10;3.53;;;24.00;53.90;;;;;;5054647;28;20289;-68
2023/06/19 07:47:27;;;;;;;3.50;3.20;;;24.00;53.90;;;;;;5054951;28;20261;-68
2023/06/19 07:49:53;;;;;;;3.15;2.90;;;24.00;54.00;;;;;;5054133;28;20254;-68
2023/06/19 07:52:18;;;;;;;3.55;3.25;;;24.10;53.90;;;;;;5054658;28;20183;-68
2023/06/19 07:54:51;;;;;;;3.05;2.85;;;24.10;53.90;;;;;;5054280;28;20187;-68
2023/06/19 07:57:17;;;;;;;4.10;3.58;;;24.20;53.80;;;;;;5053763;28;20634;-68
2023/06/19 07:59:42;;;;;;;3.15;2.95;;;24.30;53.70;;;;;;5055013;28;20179;-70
2023/06/19 08:02:08;;;;;;;3.63;2.97;;;24.30;53.50;;;;;;5054313;28;20177;-71
2023/06/19 08:04:33;;;;;;;3.13;2.92;;;24.30;53.40;;;;;;5053970;28;20203;-70
2023/06/19 08:06:59;;;;;;;5.70;3.25;;;24.30;53.50;;;;;;5054225;28;20171;-70
2023/06/19 08:09:24;;;;;;;3.88;3.42;;;24.30;53.50;;;;;;5054783;28;20209;-70
2023/06/19 08:11:50;;;;;;;3.30;2.97;;;24.30;53.40;;;;;;5053985;28;20179;-69
2023/06/19 08:14:15;;;;;;;3.50;2.90;;;24.40;53.30;;;;;;5054095;28;20175;-68
2023/06/19 08:16:41;;;;;;;4.07;3.72;;;24.40;53.20;;;;;;5053663;28;20205;-69
2023/06/19 08:19:06;;;;;;;3.88;3.40;;;24.40;53.30;;;;;;5053778;28;20241;-69
2023/06/19 08:21:32;;;;;;;3.33;3.03;;;24.40;53.40;;;;;;5054222;28;20552;-68
2023/06/19 08:23:58;;;;;;;4.32;3.90;;;24.40;53.40;;;;;;5053230;28;20959;-68
2023/06/19 08:26:23;;;;;;;3.90;3.05;;;24.50;53.40;;;;;;5054328;28;20181;-69
2023/06/19 08:28:49;;;;;;;3.72;3.42;;;24.50;53.40;;;;;;5054319;28;20266;-69
2023/06/19 08:31:14;;;;;;;4.75;3.50;;;24.50;53.30;;;;;;5053249;28;20690;-69
2023/06/19 08:33:40;;;;;;;3.40;3.20;;;24.50;53.30;;;;;;5054066;28;20278;-70
2023/06/19 08:36:05;;;;;;;3.92;3.63;;;24.50;53.40;;;;;;5053982;28;20591;-69
2023/06/19 08:38:31;;;;;;;3.70;3.40;;;24.50;53.30;;;;;;5053040;28;20222;-69
2023/06/19 08:40:56;;;;;;;4.55;3.45;;;24.50;53.20;;;;;;5053864;28;20175;-69
2023/06/19 08:43:22;;;;;;;4.00;3.53;;;24.60;53.20;;;;;;5053952;28;20211;-68
2023/06/19 08:46:09;;;;;;;3.97;3.60;;;24.60;53.20;;;;;;5053067;28;20582;-69
2023/06/19 08:48:36;;;;;;;4.15;3.85;;;24.60;53.20;;;;;;5053699;28;20269;-69
2023/06/19 08:51:01;;;;;;;4.10;3.80;;;24.60;53.00;;;;;;5053692;28;20220;-68
2023/06/19 08:53:27;;;;;;;4.38;3.95;;;24.70;53.00;;;;;;5052959;28;20525;-68
2023/06/19 08:55:53;;;;;;;4.53;4.00;;;24.70;53.00;;;;;;5053626;28;20713;-68
2023/06/19 08:58:23;;;;;;;4.28;3.88;;;24.70;53.00;;;;;;5053397;28;20265;-69
2023/06/19 09:00:48;;;;;;;4.25;3.95;;;24.70;53.00;;;;;;5052902;28;20183;-70
2023/06/19 09:03:19;;;;;;;4.25;3.88;;;24.70;53.10;;;;;;5035417;28;20211;-70
2023/06/19 09:05:49;;;;;;;4.35;3.95;;;24.70;53.10;;;;;;5053309;28;20180;-70
2023/06/19 09:08:15;;;;;;;4.10;3.80;;;24.70;53.20;;;;;;5052169;28;20183;-70
2023/06/19 09:10:41;;;;;;;4.63;4.20;;;24.70;53.10;;;;;;5053530;28;20225;-69
2023/06/19 09:13:07;;;;;;;4.45;4.05;;;24.70;53.00;;;;;;5052444;28;20179;-69
2023/06/19 09:15:35;;;;;;;4.38;4.07;;;24.70;53.10;;;;;;5053223;28;20199;-68
2023/06/19 09:18:08;;;;;;;4.97;4.55;;;24.80;53.10;;;;;;5052922;28;20547;-68
2023/06/19 09:20:36;;;;;;;4.82;4.43;;;24.80;53.10;;;;;;5052410;28;20686;-68
2023/06/19 09:23:01;;;;;;;5.03;4.63;;;24.70;53.10;;;;;;5052916;28;20258;-68
2023/06/19 09:25:27;;;;;;;4.32;4.03;;;24.70;53.10;;;;;;5053299;28;20642;-68
2023/06/19 09:27:54;;;;;;;4.70;4.30;;;24.80;53.10;;;;;;5052431;28;20171;-69
2023/06/19 09:30:19;;;;;;;4.40;4.00;;;24.80;53.10;;;;;;5052853;28;20233;-69
2023/06/19 09:32:45;;;;;;;4.55;4.25;;;24.80;53.10;;;;;;5053171;28;20171;-70
2023/06/19 09:35:10;;;;;;;4.90;4.47;;;24.80;53.10;;;;;;5051696;28;20227;-69
2023/06/19 09:37:36;;;;;;;4.75;4.32;;;24.80;53.10;;;;;;5052523;28;20203;-69
2023/06/19 09:40:11;;;;;;;5.03;4.60;;;24.80;53.00;;;;;;5051016;28;20182;-69
2023/06/19 09:42:38;;;;;;;6.45;5.50;;;24.90;53.10;;;;;;5051735;28;20252;-68
2023/06/19 09:45:05;;;;;;;6.47;4.25;;;24.90;53.10;;;;;;5051858;28;20205;-69
2023/06/19 09:47:43;;;;;;;6.25;5.13;;;24.90;53.10;;;;;;5052940;28;20254;-69
2023/06/19 09:50:11;;;;;;;5.70;5.10;;;25.00;53.10;;;;;;5051496;28;20582;-69
2023/06/19 09:52:37;;;;;;;5.88;5.38;;;25.00;53.20;;;;;;5052899;28;20639;-68
2023/06/19 09:55:04;;;;;;;5.20;4.70;;;25.00;53.20;;;;;;5052553;28;20210;-68
2023/06/19 09:57:30;;;;;;;4.80;4.30;;;25.00;53.20;;;;;;5052278;28;20190;-69
2023/06/19 09:59:56;;;;;;;6.10;4.90;;;25.00;53.20;;;;;;5051381;28;20175;-71
2023/06/19 10:02:22;;;;;;;5.10;4.63;;;25.00;53.30;;;;;;5050557;28;20245;-71
2023/06/19 10:04:52;;;;;;;5.57;4.90;;;24.90;53.40;;;;;;5051370;28;20218;-71
2023/06/19 10:07:18;;;;;;;4.95;4.32;;;25.00;53.30;;;;;;5052131;28;20258;-69
2023/06/19 10:09:57;;;;;;;5.78;4.65;;;25.00;53.20;;;;;;5051773;28;20202;-69
2023/06/19 10:12:33;;;;;;;6.07;5.28;;;25.10;53.20;;;;;;5052801;28;20228;-68
2023/06/19 10:15:02;;;;;;;5.70;4.75;;;25.10;53.10;;;;;;5051454;28;20266;-68
2023/06/19 10:17:30;;;;;;;5.38;4.85;;;25.00;53.10;;;;;;5050736;28;20563;-68
2023/06/19 10:19:55;;;;;;;5.30;4.80;;;25.00;53.30;;;;;;5065157;28;20163;-68
2023/06/19 10:22:23;;;;;;;5.15;4.72;;;25.10;53.20;;;;;;5069029;28;20571;-68
2023/06/19 10:24:50;;;;;;;4.75;4.32;;;25.10;53.20;;;;;;5055854;28;20288;-68
2023/06/19 10:27:20;;;;;;;6.88;5.20;;;25.10;53.20;;;;;;5068684;28;20589;-68
2023/06/19 10:29:51;;;;;;;6.10;5.50;;;25.10;53.20;;;;;;5076587;28;20213;-70
2023/06/19 10:32:17;;;;;;;6.20;5.60;;;25.10;53.20;;;;;;5075573;28;20547;-68
2023/06/19 10:34:46;;;;;;;5.32;4.93;;;25.10;53.20;;;;;;5072652;28;20171;-69
2023/06/19 10:37:12;;;;;;;6.55;5.20;;;25.20;53.30;;;;;;5055729;28;20221;-69
2023/06/19 10:39:38;;;;;;;5.72;4.85;;;25.10;53.30;;;;;;5055618;28;20175;-68
2023/06/19 10:42:08;;;;;;;5.10;4.68;;;25.10;53.20;;;;;;5056094;28;20202;-69
2023/06/19 10:44:33;;;;;;;5.78;5.38;;;25.10;53.80;;;;;;5055402;28;20217;-68
2023/06/19 10:47:00;;;;;;;6.05;5.45;;;25.10;53.40;;;;;;5055825;28;20172;-69
2023/06/19 10:49:25;;;;;;;5.05;4.55;;;25.10;53.40;;;;;;5055942;28;20187;-69
2023/06/19 10:51:53;;;;;;;5.78;5.18;;;25.10;53.30;;;;;;5055304;28;20198;-69
2023/06/19 10:54:18;;;;;;;6.82;6.05;;;25.20;53.20;;;;;;5055751;28;20179;-68
2023/06/19 10:56:47;;;;;;;7.18;5.07;;;25.20;53.10;;;;;;5055985;28;20178;-68
2023/06/19 10:59:13;;;;;;;6.68;6.00;;;25.20;53.10;;;;;;5055037;28;20182;-69
2023/06/19 11:01:40;;;;;;;8.55;6.22;;;25.20;53.10;;;;;;5055888;28;20590;-70
2023/06/19 11:04:06;;;;;;;12.25;6.30;;;25.20;53.20;;;;;;5055310;28;20210;-69
2023/06/19 11:06:32;;;;;;;13.27;7.80;;;25.20;53.30;;;;;;5054998;28;20603;-69
2023/06/19 11:09:00;;;;;;;15.20;9.10;;;25.20;53.30;;;;;;5055560;28;20179;-69
2023/06/19 11:11:41;;;;;;;13.82;9.02;;;25.20;53.30;;;;;;5056010;28;20178;-68
2023/06/19 11:14:07;;;;;;;12.60;9.27;;;25.30;53.20;;;;;;5054860;28;20181;-69
2023/06/19 11:16:33;;;;;;;12.95;8.88;;;25.30;53.20;;;;;;5055671;28;20172;-68
2023/06/19 11:18:59;;;;;;;13.82;8.55;;;25.40;53.20;;;;;;5055396;28;20179;-68
2023/06/19 11:21:37;;;;;;;13.18;8.82;;;25.40;53.20;;;;;;5054883;28;20174;-68
2023/06/19 11:24:02;;;;;;;13.70;8.82;;;25.40;53.10;;;;;;5055220;28;20210;-67
2023/06/19 11:26:28;;;;;;;10.85;9.23;;;25.40;53.10;;;;;;5055315;28;20178;-68
2023/06/19 11:28:54;;;;;;;12.80;9.13;;;25.40;53.10;;;;;;5054164;28;20250;-68
2023/06/19 11:31:27;;;;;;;11.43;8.10;;;25.40;53.10;;;;;;5054338;28;20255;-70
2023/06/19 11:33:59;;;;;;;12.90;8.63;;;25.40;53.10;;;;;;5054668;28;20290;-69
2023/06/19 11:36:24;;;;;;;12.90;9.20;;;25.40;53.10;;;;;;5055255;28;20262;-67
2023/06/19 11:38:52;;;;;;;11.82;8.65;;;25.40;53.10;;;;;;5055100;28;20313;-67
2023/06/19 11:41:26;;;;;;;13.10;8.23;;;25.40;53.10;;;;;;5054294;28;20695;-66
2023/06/19 11:43:57;;;;;;;11.07;7.75;;;25.40;53.80;;;;;;5055232;28;20203;-67
2023/06/19 11:46:28;;;;;;;11.48;8.68;;;25.40;53.10;;;;;;5054113;28;20182;-67
2023/06/19 11:48:54;;;;;;;15.48;8.02;;;25.40;53.30;;;;;;5054469;28;20605;-67
2023/06/19 11:51:19;;;;;;;9.77;7.72;;;25.40;53.20;;;;;;5054639;28;20255;-66
2023/06/19 11:53:45;;;;;;;11.43;8.07;;;25.50;53.10;;;;;;5054902;28;20300;-67
2023/06/19 11:56:10;;;;;;;10.88;8.93;;;25.50;53.00;;;;;;5053866;28;20175;-67
2023/06/19 11:58:36;;;;;;;10.07;8.00;;;25.60;52.90;;;;;;5054763;28;20626;-67
2023/06/19 12:01:02;;;;;;;11.57;8.25;;;25.60;52.90;;;;;;5054468;28;20171;-67
2023/06/19 12:03:27;;;;;;;10.40;8.02;;;25.60;52.90;;;;;;5054166;28;20227;-67
2023/06/19 12:05:53;;;;;;;9.77;8.23;;;25.60;52.70;;;;;;5054904;28;20203;-67
2023/06/19 12:08:18;;;;;;;10.35;8.65;;;25.60;52.60;;;;;;5054335;28;20254;-67
2023/06/19 12:10:44;;;;;;;9.13;7.43;;;25.60;52.60;;;;;;5053830;28;20207;-67
2023/06/19 12:13:09;;;;;;;10.98;8.70;;;25.60;52.60;;;;;;5054208;28;20575;-66
2023/06/19 12:15:35;;;;;;;9.07;8.18;;;25.60;52.50;;;;;;5054597;28;20700;-67
2023/06/19 12:18:00;;;;;;;8.75;7.95;;;25.60;52.50;;;;;;5053395;28;20184;-66
2023/06/19 12:20:26;;;;;;;9.52;8.48;;;25.60;52.40;;;;;;5054396;28;20638;-66
2023/06/19 12:22:51;;;;;;;8.45;7.60;;;25.60;52.30;;;;;;5053788;28;20202;-67
2023/06/19 12:25:17;;;;;;;8.63;7.63;;;25.70;52.30;;;;;;5054122;28;20214;-66
2023/06/19 12:27:42;;;;;;;10.27;8.45;;;25.70;52.20;;;;;;5054278;28;20217;-68
2023/06/19 12:30:09;;;;;;;8.73;7.82;;;25.70;52.10;;;;;;5053135;28;20171;-59
2023/06/19 12:32:34;;;;;;;8.80;7.90;;;25.60;52.10;;;;;;5054266;28;20199;-59
2023/06/19 12:34:59;;;;;;;8.55;7.75;;;25.50;51.80;;;;;;5053839;28;20253;-60
2023/06/19 12:37:25;;;;;;;8.30;7.50;;;25.50;52.20;;;;;;5052937;28;20309;-59
2023/06/19 12:39:51;;;;;;;9.10;7.28;;;25.40;52.10;;;;;;5053900;28;20266;-60
2023/06/19 12:42:16;;;;;;;7.70;7.10;;;25.40;52.10;;;;;;5053606;28;20528;-59